sensor_id;sensor_type;location;lat;lon;timestamp;temperature;humidity
36816;DHT22;71982;52.294;6.760;2024-03-02T00:01:47;7.70;99.90
36816;DHT22;71982;52.294;6.760;2024-03-02T00:04:14;7.70;99.90
36816;DHT22;71982;52.294;6.760;2024-03-02T00:06:42;7.70;99.90
36816;DHT22;71982;52.294;6.760;2024-03-02T00:09:10;7.80;99.90
36816;DHT22;71982;52.294;6.760;2024-03-02T00:11:38;7.80;99.90
36816;DHT22;71982;52.294;6.760;2024-03-02T00:14:08;7.90;99.90
36816;DHT22;71982;52.294;6.760;2024-03-02T00:16:35;8.00;99.90
36816;DHT22;71982;52.294;6.760;2024-03-02T00:19:03;8.10;99.90
36816;DHT22;71982;52.294;6.760;2024-03-02T00:21:31;8.00;99.90
36816;DHT22;71982;52.294;6.760;2024-03-02T00:23:58;8.00;99.90
36816;DHT22;71982;52.294;6.760;2024-03-02T00:26:25;8.00;99.90
36816;DHT22;71982;52.294;6.760;2024-03-02T00:28:55;8.10;99.90
36816;DHT22;71982;52.294;6.760;2024-03-02T00:31:35;8.00;99.90
36816;DHT22;71982;52.294;6.760;2024-03-02T00:34:08;8.00;99.90
36816;DHT22;71982;52.294;6.760;2024-03-02T00:36:36;8.00;99.90
36816;DHT22;71982;52.294;6.760;2024-03-02T00:39:05;8.10;99.90
36816;DHT22;71982;52.294;6.760;2024-03-02T00:41:34;8.00;99.90
36816;DHT22;71982;52.294;6.760;2024-03-02T00:44:02;7.90;99.90
36816;DHT22;71982;52.294;6.760;2024-03-02T00:46:34;7.90;99.90
36816;DHT22;71982;52.294;6.760;2024-03-02T00:49:06;7.90;99.90
36816;DHT22;71982;52.294;6.760;2024-03-02T00:51:40;7.90;99.90
36816;DHT22;71982;52.294;6.760;2024-03-02T00:54:10;7.90;99.90
36816;DHT22;71982;52.294;6.760;2024-03-02T00:56:37;7.90;99.90
36816;DHT22;71982;52.294;6.760;2024-03-02T00:59:09;7.90;99.90
36816;DHT22;71982;52.294;6.760;2024-03-02T01:01:38;7.90;99.90
36816;DHT22;71982;52.294;6.760;2024-03-02T01:04:04;7.90;99.90
36816;DHT22;71982;52.294;6.760;2024-03-02T01:06:31;7.90;99.90
36816;DHT22;71982;52.294;6.760;2024-03-02T01:08:58;7.90;99.90
36816;DHT22;71982;52.294;6.760;2024-03-02T01:11:25;7.90;99.90
36816;DHT22;71982;52.294;6.760;2024-03-02T01:13:52;7.90;99.90
36816;DHT22;71982;52.294;6.760;2024-03-02T01:16:19;7.90;99.90
36816;DHT22;71982;52.294;6.760;2024-03-02T01:18:50;7.90;99.90
36816;DHT22;71982;52.294;6.760;2024-03-02T01:21:17;7.80;99.90
36816;DHT22;71982;52.294;6.760;2024-03-02T01:23:51;7.80;99.90
36816;DHT22;71982;52.294;6.760;2024-03-02T01:26:21;7.80;99.90
36816;DHT22;71982;52.294;6.760;2024-03-02T01:28:47;7.70;99.90
36816;DHT22;71982;52.294;6.760;2024-03-02T01:31:14;7.70;99.90
36816;DHT22;71982;52.294;6.760;2024-03-02T01:33:41;7.70;99.90
36816;DHT22;71982;52.294;6.760;2024-03-02T01:36:09;7.60;99.90
36816;DHT22;71982;52.294;6.760;2024-03-02T01:38:36;7.60;99.90
36816;DHT22;71982;52.294;6.760;2024-03-02T01:41:03;7.60;99.90
36816;DHT22;71982;52.294;6.760;2024-03-02T01:43:30;7.70;99.90
36816;DHT22;71982;52.294;6.760;2024-03-02T01:46:00;7.60;99.90
36816;DHT22;71982;52.294;6.760;2024-03-02T01:48:28;7.60;99.90
36816;DHT22;71982;52.294;6.760;2024-03-02T01:51:00;7.70;99.90
36816;DHT22;71982;52.294;6.760;2024-03-02T01:53:32;7.70;99.90
36816;DHT22;71982;52.294;6.760;2024-03-02T01:55:59;7.70;99.90
36816;DHT22;71982;52.294;6.760;2024-03-02T01:58:30;7.80;99.90
36816;DHT22;71982;52.294;6.760;2024-03-02T02:00:56;7.80;99.90
36816;DHT22;71982;52.294;6.760;2024-03-02T02:03:23;7.80;99.90
36816;DHT22;71982;52.294;6.760;2024-03-02T02:05:50;7.80;99.90
36816;DHT22;71982;52.294;6.760;2024-03-02T02:08:19;7.80;99.90
36816;DHT22;71982;52.294;6.760;2024-03-02T02:10:50;7.80;99.90
36816;DHT22;71982;52.294;6.760;2024-03-02T02:13:17;7.80;99.90
36816;DHT22;71982;52.294;6.760;2024-03-02T02:15:44;7.80;99.90
36816;DHT22;71982;52.294;6.760;2024-03-02T02:18:11;7.80;99.90
36816;DHT22;71982;52.294;6.760;2024-03-02T02:20:38;7.80;99.90
36816;DHT22;71982;52.294;6.760;2024-03-02T02:23:06;7.80;99.90
36816;DHT22;71982;52.294;6.760;2024-03-02T02:25:35;7.90;99.90
36816;DHT22;71982;52.294;6.760;2024-03-02T02:28:06;7.80;99.90
36816;DHT22;71982;52.294;6.760;2024-03-02T02:30:36;7.90;99.90
36816;DHT22;71982;52.294;6.760;2024-03-02T02:33:03;7.90;99.90
36816;DHT22;71982;52.294;6.760;2024-03-02T02:35:30;8.00;99.90
36816;DHT22;71982;52.294;6.760;2024-03-02T02:37:58;7.90;99.90
36816;DHT22;71982;52.294;6.760;2024-03-02T02:40:26;8.00;99.90
36816;DHT22;71982;52.294;6.760;2024-03-02T02:42:56;8.00;99.90
36816;DHT22;71982;52.294;6.760;2024-03-02T02:45:25;8.00;99.90
36816;DHT22;71982;52.294;6.760;2024-03-02T02:48:00;8.00;99.90
36816;DHT22;71982;52.294;6.760;2024-03-02T02:50:34;8.00;99.90
36816;DHT22;71982;52.294;6.760;2024-03-02T02:53:01;8.00;99.90
36816;DHT22;71982;52.294;6.760;2024-03-02T02:55:32;8.00;99.90
36816;DHT22;71982;52.294;6.760;2024-03-02T02:57:59;8.00;99.90
36816;DHT22;71982;52.294;6.760;2024-03-02T03:00:26;8.00;99.90
36816;DHT22;71982;52.294;6.760;2024-03-02T03:03:00;8.00;99.90
36816;DHT22;71982;52.294;6.760;2024-03-02T03:05:28;7.90;99.90
36816;DHT22;71982;52.294;6.760;2024-03-02T03:07:55;8.00;99.90
36816;DHT22;71982;52.294;6.760;2024-03-02T03:10:22;7.90;99.90
36816;DHT22;71982;52.294;6.760;2024-03-02T03:12:53;7.90;99.90
36816;DHT22;71982;52.294;6.760;2024-03-02T03:15:21;7.90;99.90
36816;DHT22;71982;52.294;6.760;2024-03-02T03:17:48;7.90;99.90
36816;DHT22;71982;52.294;6.760;2024-03-02T03:20:16;7.90;99.90
36816;DHT22;71982;52.294;6.760;2024-03-02T03:22:47;7.70;99.90
36816;DHT22;71982;52.294;6.760;2024-03-02T03:25:14;7.70;99.90
36816;DHT22;71982;52.294;6.760;2024-03-02T03:27:40;7.60;99.90
36816;DHT22;71982;52.294;6.760;2024-03-02T03:30:12;7.50;99.90
36816;DHT22;71982;52.294;6.760;2024-03-02T03:32:39;7.30;99.90
36816;DHT22;71982;52.294;6.760;2024-03-02T03:35:10;7.20;99.90
36816;DHT22;71982;52.294;6.760;2024-03-02T03:37:38;7.10;99.90
36816;DHT22;71982;52.294;6.760;2024-03-02T03:40:05;7.00;99.90
36816;DHT22;71982;52.294;6.760;2024-03-02T03:42:35;7.00;99.90
36816;DHT22;71982;52.294;6.760;2024-03-02T03:45:05;7.00;99.90
36816;DHT22;71982;52.294;6.760;2024-03-02T03:47:37;7.00;99.90
36816;DHT22;71982;52.294;6.760;2024-03-02T03:50:04;7.10;99.90
36816;DHT22;71982;52.294;6.760;2024-03-02T03:52:33;7.10;99.90
36816;DHT22;71982;52.294;6.760;2024-03-02T03:55:00;7.10;99.90
36816;DHT22;71982;52.294;6.760;2024-03-02T03:57:30;7.10;99.90
36816;DHT22;71982;52.294;6.760;2024-03-02T03:59:58;7.10;99.90
36816;DHT22;71982;52.294;6.760;2024-03-02T04:02:25;7.10;99.90
36816;DHT22;71982;52.294;6.760;2024-03-02T04:04:55;7.10;99.90
36816;DHT22;71982;52.294;6.760;2024-03-02T04:07:22;7.20;99.90
36816;DHT22;71982;52.294;6.760;2024-03-02T04:09:49;7.30;99.90
36816;DHT22;71982;52.294;6.760;2024-03-02T04:12:16;7.30;99.90
36816;DHT22;71982;52.294;6.760;2024-03-02T04:14:46;7.40;99.90
36816;DHT22;71982;52.294;6.760;2024-03-02T04:17:13;7.40;99.90
36816;DHT22;71982;52.294;6.760;2024-03-02T04:19:39;7.50;99.90
36816;DHT22;71982;52.294;6.760;2024-03-02T04:22:10;7.50;99.90
36816;DHT22;71982;52.294;6.760;2024-03-02T04:24:37;7.70;99.90
36816;DHT22;71982;52.294;6.760;2024-03-02T04:27:04;7.70;99.90
36816;DHT22;71982;52.294;6.760;2024-03-02T04:29:31;7.70;99.90
36816;DHT22;71982;52.294;6.760;2024-03-02T04:32:01;7.90;99.90
36816;DHT22;71982;52.294;6.760;2024-03-02T04:34:30;8.00;99.90
36816;DHT22;71982;52.294;6.760;2024-03-02T04:36:58;8.00;99.90
36816;DHT22;71982;52.294;6.760;2024-03-02T04:39:30;8.20;99.90
36816;DHT22;71982;52.294;6.760;2024-03-02T04:41:56;8.30;99.90
36816;DHT22;71982;52.294;6.760;2024-03-02T04:44:28;8.40;99.90
36816;DHT22;71982;52.294;6.760;2024-03-02T04:47:00;8.40;99.90
36816;DHT22;71982;52.294;6.760;2024-03-02T04:49:30;8.40;99.90
36816;DHT22;71982;52.294;6.760;2024-03-02T04:51:59;8.40;99.90
36816;DHT22;71982;52.294;6.760;2024-03-02T04:54:30;8.40;99.90
36816;DHT22;71982;52.294;6.760;2024-03-02T04:56:56;8.40;99.90
36816;DHT22;71982;52.294;6.760;2024-03-02T04:59:30;8.50;99.90
36816;DHT22;71982;52.294;6.760;2024-03-02T05:02:03;8.60;99.90
36816;DHT22;71982;52.294;6.760;2024-03-02T05:04:30;8.70;99.90
36816;DHT22;71982;52.294;6.760;2024-03-02T05:07:11;8.70;99.90
36816;DHT22;71982;52.294;6.760;2024-03-02T05:09:39;8.80;99.90
36816;DHT22;71982;52.294;6.760;2024-03-02T05:12:06;8.70;99.90
36816;DHT22;71982;52.294;6.760;2024-03-02T05:15:13;8.60;99.90
36816;DHT22;71982;52.294;6.760;2024-03-02T05:17:41;8.40;99.90
36816;DHT22;71982;52.294;6.760;2024-03-02T05:20:09;8.40;99.90
36816;DHT22;71982;52.294;6.760;2024-03-02T05:22:36;8.20;99.90
36816;DHT22;71982;52.294;6.760;2024-03-02T05:25:06;8.20;99.90
36816;DHT22;71982;52.294;6.760;2024-03-02T05:27:35;8.10;99.90
36816;DHT22;71982;52.294;6.760;2024-03-02T05:30:05;8.00;99.90
36816;DHT22;71982;52.294;6.760;2024-03-02T05:32:34;7.90;99.90
36816;DHT22;71982;52.294;6.760;2024-03-02T05:35:01;8.00;99.90
36816;DHT22;71982;52.294;6.760;2024-03-02T05:37:30;8.00;99.90
36816;DHT22;71982;52.294;6.760;2024-03-02T05:40:00;7.90;99.90
36816;DHT22;71982;52.294;6.760;2024-03-02T05:42:32;7.70;99.90
36816;DHT22;71982;52.294;6.760;2024-03-02T05:44:59;7.60;99.90
36816;DHT22;71982;52.294;6.760;2024-03-02T05:47:28;7.50;99.90
36816;DHT22;71982;52.294;6.760;2024-03-02T05:49:58;7.40;99.90
36816;DHT22;71982;52.294;6.760;2024-03-02T05:52:25;7.30;99.90
36816;DHT22;71982;52.294;6.760;2024-03-02T05:54:52;7.20;99.90
36816;DHT22;71982;52.294;6.760;2024-03-02T05:57:20;7.20;99.90
36816;DHT22;71982;52.294;6.760;2024-03-02T06:00:04;7.20;99.90
36816;DHT22;71982;52.294;6.760;2024-03-02T06:02:33;7.20;99.90
36816;DHT22;71982;52.294;6.760;2024-03-02T06:05:00;7.20;99.90
36816;DHT22;71982;52.294;6.760;2024-03-02T06:07:30;7.20;99.90
36816;DHT22;71982;52.294;6.760;2024-03-02T06:09:58;7.10;99.90
36816;DHT22;71982;52.294;6.760;2024-03-02T06:12:25;7.00;99.90
36816;DHT22;71982;52.294;6.760;2024-03-02T06:14:52;6.90;99.90
36816;DHT22;71982;52.294;6.760;2024-03-02T06:17:20;6.80;99.90
36816;DHT22;71982;52.294;6.760;2024-03-02T06:19:49;6.70;99.90
36816;DHT22;71982;52.294;6.760;2024-03-02T06:22:18;6.60;99.90
36816;DHT22;71982;52.294;6.760;2024-03-02T06:24:46;6.50;99.90
36816;DHT22;71982;52.294;6.760;2024-03-02T06:27:13;6.50;99.90
36816;DHT22;71982;52.294;6.760;2024-03-02T06:29:40;6.40;99.90
36816;DHT22;71982;52.294;6.760;2024-03-02T06:32:09;6.30;99.90
36816;DHT22;71982;52.294;6.760;2024-03-02T06:34:37;6.40;99.90
36816;DHT22;71982;52.294;6.760;2024-03-02T06:37:04;6.50;99.90
36816;DHT22;71982;52.294;6.760;2024-03-02T06:39:31;6.60;99.90
36816;DHT22;71982;52.294;6.760;2024-03-02T06:41:59;6.70;99.90
36816;DHT22;71982;52.294;6.760;2024-03-02T06:44:26;6.90;99.90
36816;DHT22;71982;52.294;6.760;2024-03-02T06:46:54;7.00;99.90
36816;DHT22;71982;52.294;6.760;2024-03-02T06:49:22;7.10;99.90
36816;DHT22;71982;52.294;6.760;2024-03-02T06:51:58;7.20;99.90
36816;DHT22;71982;52.294;6.760;2024-03-02T06:54:25;7.20;99.90
36816;DHT22;71982;52.294;6.760;2024-03-02T06:56:52;7.30;99.90
36816;DHT22;71982;52.294;6.760;2024-03-02T06:59:19;7.20;99.90
36816;DHT22;71982;52.294;6.760;2024-03-02T07:01:45;7.20;99.90
36816;DHT22;71982;52.294;6.760;2024-03-02T07:04:12;7.20;99.90
36816;DHT22;71982;52.294;6.760;2024-03-02T07:06:39;7.20;99.90
36816;DHT22;71982;52.294;6.760;2024-03-02T07:09:10;7.20;99.90
36816;DHT22;71982;52.294;6.760;2024-03-02T07:11:36;7.10;99.90
36816;DHT22;71982;52.294;6.760;2024-03-02T07:14:03;7.20;99.90
36816;DHT22;71982;52.294;6.760;2024-03-02T07:16:30;7.10;99.90
36816;DHT22;71982;52.294;6.760;2024-03-02T07:18:59;7.10;99.90
36816;DHT22;71982;52.294;6.760;2024-03-02T07:21:29;7.20;99.90
36816;DHT22;71982;52.294;6.760;2024-03-02T07:24:00;7.20;99.90
36816;DHT22;71982;52.294;6.760;2024-03-02T07:26:42;7.30;99.90
36816;DHT22;71982;52.294;6.760;2024-03-02T07:29:09;7.30;99.90
36816;DHT22;71982;52.294;6.760;2024-03-02T07:31:36;7.40;99.90
36816;DHT22;71982;52.294;6.760;2024-03-02T07:34:03;7.40;99.90
36816;DHT22;71982;52.294;6.760;2024-03-02T07:36:33;7.60;99.90
36816;DHT22;71982;52.294;6.760;2024-03-02T07:38:59;7.60;99.90
36816;DHT22;71982;52.294;6.760;2024-03-02T07:41:26;7.70;99.90
36816;DHT22;71982;52.294;6.760;2024-03-02T07:44:06;7.80;99.90
36816;DHT22;71982;52.294;6.760;2024-03-02T07:46:36;7.90;99.90
36816;DHT22;71982;52.294;6.760;2024-03-02T07:49:03;8.20;99.90
36816;DHT22;71982;52.294;6.760;2024-03-02T07:51:30;8.20;99.90
36816;DHT22;71982;52.294;6.760;2024-03-02T07:54:03;8.30;99.90
36816;DHT22;71982;52.294;6.760;2024-03-02T07:56:32;8.40;99.90
36816;DHT22;71982;52.294;6.760;2024-03-02T07:59:00;8.60;99.90
36816;DHT22;71982;52.294;6.760;2024-03-02T08:01:43;8.70;99.90
36816;DHT22;71982;52.294;6.760;2024-03-02T08:04:16;8.80;99.90
36816;DHT22;71982;52.294;6.760;2024-03-02T08:06:43;8.80;99.90
36816;DHT22;71982;52.294;6.760;2024-03-02T08:09:10;9.00;99.90
36816;DHT22;71982;52.294;6.760;2024-03-02T08:11:37;9.20;99.90
36816;DHT22;71982;52.294;6.760;2024-03-02T08:14:04;9.40;99.90
36816;DHT22;71982;52.294;6.760;2024-03-02T08:16:31;9.50;99.90
36816;DHT22;71982;52.294;6.760;2024-03-02T08:18:59;9.50;99.90
36816;DHT22;71982;52.294;6.760;2024-03-02T08:21:26;9.60;99.90
36816;DHT22;71982;52.294;6.760;2024-03-02T08:23:56;9.50;99.90
36816;DHT22;71982;52.294;6.760;2024-03-02T08:26:24;9.60;99.90
36816;DHT22;71982;52.294;6.760;2024-03-02T08:28:51;9.60;99.90
36816;DHT22;71982;52.294;6.760;2024-03-02T08:31:18;9.70;99.90
36816;DHT22;71982;52.294;6.760;2024-03-02T08:33:45;9.90;99.90
36816;DHT22;71982;52.294;6.760;2024-03-02T08:36:13;10.20;99.90
36816;DHT22;71982;52.294;6.760;2024-03-02T08:38:40;10.40;99.90
36816;DHT22;71982;52.294;6.760;2024-03-02T08:41:07;10.60;99.90
36816;DHT22;71982;52.294;6.760;2024-03-02T08:43:34;10.70;99.90
36816;DHT22;71982;52.294;6.760;2024-03-02T08:46:01;10.70;99.90
36816;DHT22;71982;52.294;6.760;2024-03-02T08:48:28;10.60;99.90
36816;DHT22;71982;52.294;6.760;2024-03-02T08:50:55;10.60;99.90
36816;DHT22;71982;52.294;6.760;2024-03-02T08:53:23;10.80;99.90
36816;DHT22;71982;52.294;6.760;2024-03-02T08:55:50;10.80;99.90
36816;DHT22;71982;52.294;6.760;2024-03-02T08:58:17;10.90;99.90
36816;DHT22;71982;52.294;6.760;2024-03-02T09:00:44;10.90;99.90
36816;DHT22;71982;52.294;6.760;2024-03-02T09:03:11;11.10;99.90
36816;DHT22;71982;52.294;6.760;2024-03-02T09:05:38;11.20;99.90
36816;DHT22;71982;52.294;6.760;2024-03-02T09:08:05;10.90;99.90
36816;DHT22;71982;52.294;6.760;2024-03-02T09:10:33;10.80;99.90
36816;DHT22;71982;52.294;6.760;2024-03-02T09:13:00;10.70;99.90
36816;DHT22;71982;52.294;6.760;2024-03-02T09:15:27;10.80;99.90
36816;DHT22;71982;52.294;6.760;2024-03-02T09:17:54;10.80;99.90
36816;DHT22;71982;52.294;6.760;2024-03-02T09:20:21;10.80;99.90
36816;DHT22;71982;52.294;6.760;2024-03-02T09:22:48;10.80;99.90
36816;DHT22;71982;52.294;6.760;2024-03-02T09:25:15;10.80;99.90
36816;DHT22;71982;52.294;6.760;2024-03-02T09:27:43;10.90;99.90
36816;DHT22;71982;52.294;6.760;2024-03-02T09:30:13;11.00;99.90
36816;DHT22;71982;52.294;6.760;2024-03-02T09:32:40;11.10;99.90
36816;DHT22;71982;52.294;6.760;2024-03-02T09:35:08;11.20;99.90
36816;DHT22;71982;52.294;6.760;2024-03-02T09:37:35;11.30;99.90
36816;DHT22;71982;52.294;6.760;2024-03-02T09:40:02;11.30;99.90
36816;DHT22;71982;52.294;6.760;2024-03-02T09:42:29;11.30;99.90
36816;DHT22;71982;52.294;6.760;2024-03-02T09:44:59;11.30;99.90
36816;DHT22;71982;52.294;6.760;2024-03-02T09:47:26;11.20;99.90
36816;DHT22;71982;52.294;6.760;2024-03-02T09:49:53;11.30;99.90
36816;DHT22;71982;52.294;6.760;2024-03-02T09:52:21;11.20;99.90
36816;DHT22;71982;52.294;6.760;2024-03-02T09:54:48;10.90;99.90
36816;DHT22;71982;52.294;6.760;2024-03-02T09:57:15;10.70;99.90
36816;DHT22;71982;52.294;6.760;2024-03-02T09:59:42;10.90;99.90
36816;DHT22;71982;52.294;6.760;2024-03-02T10:02:12;11.20;99.90
36816;DHT22;71982;52.294;6.760;2024-03-02T10:04:39;11.10;99.90
36816;DHT22;71982;52.294;6.760;2024-03-02T10:07:13;10.90;99.90
36816;DHT22;71982;52.294;6.760;2024-03-02T10:09:40;10.80;99.90
36816;DHT22;71982;52.294;6.760;2024-03-02T10:12:09;10.80;99.90
36816;DHT22;71982;52.294;6.760;2024-03-02T10:14:37;10.70;99.90
36816;DHT22;71982;52.294;6.760;2024-03-02T10:17:05;10.60;99.90
36816;DHT22;71982;52.294;6.760;2024-03-02T10:19:33;10.70;99.90
36816;DHT22;71982;52.294;6.760;2024-03-02T10:22:02;10.90;99.90
36816;DHT22;71982;52.294;6.760;2024-03-02T10:24:36;11.30;99.90
36816;DHT22;71982;52.294;6.760;2024-03-02T10:27:07;11.70;99.90
36816;DHT22;71982;52.294;6.760;2024-03-02T10:29:37;12.10;99.90
36816;DHT22;71982;52.294;6.760;2024-03-02T10:32:05;12.40;99.90
36816;DHT22;71982;52.294;6.760;2024-03-02T10:34:35;12.50;99.90
36816;DHT22;71982;52.294;6.760;2024-03-02T10:37:02;12.40;99.90
36816;DHT22;71982;52.294;6.760;2024-03-02T10:39:30;12.30;99.90
36816;DHT22;71982;52.294;6.760;2024-03-02T10:41:58;12.50;99.90
36816;DHT22;71982;52.294;6.760;2024-03-02T10:44:29;12.80;99.90
36816;DHT22;71982;52.294;6.760;2024-03-02T10:46:57;12.90;99.90
36816;DHT22;71982;52.294;6.760;2024-03-02T10:49:26;12.90;99.90
36816;DHT22;71982;52.294;6.760;2024-03-02T10:51:55;12.80;99.90
36816;DHT22;71982;52.294;6.760;2024-03-02T10:54:22;12.80;99.90
36816;DHT22;71982;52.294;6.760;2024-03-02T10:56:53;12.70;99.90
36816;DHT22;71982;52.294;6.760;2024-03-02T10:59:26;12.90;99.90
36816;DHT22;71982;52.294;6.760;2024-03-02T11:01:55;12.90;99.90
36816;DHT22;71982;52.294;6.760;2024-03-02T11:04:24;13.00;99.90
36816;DHT22;71982;52.294;6.760;2024-03-02T11:06:52;13.00;99.90
36816;DHT22;71982;52.294;6.760;2024-03-02T11:09:22;13.20;99.90
36816;DHT22;71982;52.294;6.760;2024-03-02T11:11:56;13.10;99.90
36816;DHT22;71982;52.294;6.760;2024-03-02T11:14:25;13.20;99.90
36816;DHT22;71982;52.294;6.760;2024-03-02T11:16:52;13.20;99.90
36816;DHT22;71982;52.294;6.760;2024-03-02T11:19:20;13.50;99.90
36816;DHT22;71982;52.294;6.760;2024-03-02T11:21:48;13.30;99.90
36816;DHT22;71982;52.294;6.760;2024-03-02T11:24:33;13.50;99.90
36816;DHT22;71982;52.294;6.760;2024-03-02T11:27:01;13.40;99.90
36816;DHT22;71982;52.294;6.760;2024-03-02T11:29:43;13.50;99.90
36816;DHT22;71982;52.294;6.760;2024-03-02T11:32:15;13.80;99.90
36816;DHT22;71982;52.294;6.760;2024-03-02T11:34:44;13.70;99.90
36816;DHT22;71982;52.294;6.760;2024-03-02T11:37:13;13.90;99.90
36816;DHT22;71982;52.294;6.760;2024-03-02T11:39:43;14.20;99.90
36816;DHT22;71982;52.294;6.760;2024-03-02T11:42:11;14.50;99.90
36816;DHT22;71982;52.294;6.760;2024-03-02T11:44:41;14.50;99.90
36816;DHT22;71982;52.294;6.760;2024-03-02T11:47:11;14.70;99.90
36816;DHT22;71982;52.294;6.760;2024-03-02T11:49:41;14.90;99.90
36816;DHT22;71982;52.294;6.760;2024-03-02T11:52:09;15.10;99.90
36816;DHT22;71982;52.294;6.760;2024-03-02T11:54:38;15.80;99.90
36816;DHT22;71982;52.294;6.760;2024-03-02T11:57:07;16.00;99.90
36816;DHT22;71982;52.294;6.760;2024-03-02T11:59:34;16.20;99.90
36816;DHT22;71982;52.294;6.760;2024-03-02T12:02:02;16.60;99.80
36816;DHT22;71982;52.294;6.760;2024-03-02T12:04:29;16.50;99.50
36816;DHT22;71982;52.294;6.760;2024-03-02T12:06:58;16.60;99.90
36816;DHT22;71982;52.294;6.760;2024-03-02T12:09:26;16.80;99.80
36816;DHT22;71982;52.294;6.760;2024-03-02T12:12:04;17.70;97.90
36816;DHT22;71982;52.294;6.760;2024-03-02T12:14:33;18.10;97.70
36816;DHT22;71982;52.294;6.760;2024-03-02T12:17:00;17.50;97.50
36816;DHT22;71982;52.294;6.760;2024-03-02T12:19:28;17.50;98.80
36816;DHT22;71982;52.294;6.760;2024-03-02T12:21:56;17.00;98.30
36816;DHT22;71982;52.294;6.760;2024-03-02T12:24:24;16.80;98.50
36816;DHT22;71982;52.294;6.760;2024-03-02T12:26:51;17.30;98.40
36816;DHT22;71982;52.294;6.760;2024-03-02T12:29:19;17.60;97.80
36816;DHT22;71982;52.294;6.760;2024-03-02T12:31:49;18.10;97.60
36816;DHT22;71982;52.294;6.760;2024-03-02T12:34:18;18.40;97.50
36816;DHT22;71982;52.294;6.760;2024-03-02T12:36:46;17.80;97.00
36816;DHT22;71982;52.294;6.760;2024-03-02T12:39:15;17.80;97.00
36816;DHT22;71982;52.294;6.760;2024-03-02T12:41:42;17.20;97.60
36816;DHT22;71982;52.294;6.760;2024-03-02T12:44:09;17.20;97.30
36816;DHT22;71982;52.294;6.760;2024-03-02T12:46:35;17.70;96.70
36816;DHT22;71982;52.294;6.760;2024-03-02T12:49:08;18.00;96.70
36816;DHT22;71982;52.294;6.760;2024-03-02T12:51:36;18.30;97.10
36816;DHT22;71982;52.294;6.760;2024-03-02T12:54:03;18.00;97.50
36816;DHT22;71982;52.294;6.760;2024-03-02T12:56:31;17.70;97.90
36816;DHT22;71982;52.294;6.760;2024-03-02T12:58:58;18.10;97.40
36816;DHT22;71982;52.294;6.760;2024-03-02T13:01:25;18.30;96.70
36816;DHT22;71982;52.294;6.760;2024-03-02T13:03:53;18.10;96.90
36816;DHT22;71982;52.294;6.760;2024-03-02T13:06:22;18.30;96.10
36816;DHT22;71982;52.294;6.760;2024-03-02T13:08:50;18.10;95.70
36816;DHT22;71982;52.294;6.760;2024-03-02T13:11:17;18.10;96.50
36816;DHT22;71982;52.294;6.760;2024-03-02T13:13:43;18.60;96.50
36816;DHT22;71982;52.294;6.760;2024-03-02T13:16:11;18.50;95.40
36816;DHT22;71982;52.294;6.760;2024-03-02T13:18:39;19.10;95.90
36816;DHT22;71982;52.294;6.760;2024-03-02T13:21:06;18.70;95.20
36816;DHT22;71982;52.294;6.760;2024-03-02T13:23:34;19.20;95.30
36816;DHT22;71982;52.294;6.760;2024-03-02T13:26:02;18.70;95.60
36816;DHT22;71982;52.294;6.760;2024-03-02T13:28:30;19.90;95.10
36816;DHT22;71982;52.294;6.760;2024-03-02T13:30:56;19.70;94.20
36816;DHT22;71982;52.294;6.760;2024-03-02T13:33:23;19.90;94.40
36816;DHT22;71982;52.294;6.760;2024-03-02T13:35:50;18.70;94.70
36816;DHT22;71982;52.294;6.760;2024-03-02T13:38:18;18.40;94.50
36816;DHT22;71982;52.294;6.760;2024-03-02T13:40:48;17.50;95.70
36816;DHT22;71982;52.294;6.760;2024-03-02T13:43:16;16.50;96.30
36816;DHT22;71982;52.294;6.760;2024-03-02T13:45:43;16.10;97.30
36816;DHT22;71982;52.294;6.760;2024-03-02T13:48:10;15.80;97.20
36816;DHT22;71982;52.294;6.760;2024-03-02T13:50:37;15.50;97.10
36816;DHT22;71982;52.294;6.760;2024-03-02T13:53:04;15.50;98.20
36816;DHT22;71982;52.294;6.760;2024-03-02T13:55:32;15.70;97.70
36816;DHT22;71982;52.294;6.760;2024-03-02T13:58:00;16.40;97.40
36816;DHT22;71982;52.294;6.760;2024-03-02T14:00:27;16.40;97.80
36816;DHT22;71982;52.294;6.760;2024-03-02T14:02:55;16.50;96.70
36816;DHT22;71982;52.294;6.760;2024-03-02T14:05:21;16.60;97.40
36816;DHT22;71982;52.294;6.760;2024-03-02T14:07:48;16.80;96.50
36816;DHT22;71982;52.294;6.760;2024-03-02T14:10:15;17.00;96.80
36816;DHT22;71982;52.294;6.760;2024-03-02T14:12:43;17.80;95.80
36816;DHT22;71982;52.294;6.760;2024-03-02T14:15:12;17.60;96.00
36816;DHT22;71982;52.294;6.760;2024-03-02T14:17:38;16.90;96.00
36816;DHT22;71982;52.294;6.760;2024-03-02T14:20:06;17.20;96.10
36816;DHT22;71982;52.294;6.760;2024-03-02T14:22:35;16.80;97.60
36816;DHT22;71982;52.294;6.760;2024-03-02T14:25:03;17.30;96.40
36816;DHT22;71982;52.294;6.760;2024-03-02T14:27:30;17.30;96.00
36816;DHT22;71982;52.294;6.760;2024-03-02T14:29:57;17.50;96.80
36816;DHT22;71982;52.294;6.760;2024-03-02T14:32:25;18.30;96.60
36816;DHT22;71982;52.294;6.760;2024-03-02T14:34:52;18.70;96.30
36816;DHT22;71982;52.294;6.760;2024-03-02T14:37:19;18.80;96.20
36816;DHT22;71982;52.294;6.760;2024-03-02T14:39:47;18.90;95.00
36816;DHT22;71982;52.294;6.760;2024-03-02T14:42:13;17.90;95.20
36816;DHT22;71982;52.294;6.760;2024-03-02T14:44:40;17.40;95.90
36816;DHT22;71982;52.294;6.760;2024-03-02T14:47:07;17.50;96.10
36816;DHT22;71982;52.294;6.760;2024-03-02T14:49:36;17.60;95.60
36816;DHT22;71982;52.294;6.760;2024-03-02T14:52:06;17.60;95.90
36816;DHT22;71982;52.294;6.760;2024-03-02T14:54:33;17.90;95.40
36816;DHT22;71982;52.294;6.760;2024-03-02T14:57:00;17.70;95.40
36816;DHT22;71982;52.294;6.760;2024-03-02T14:59:28;17.30;96.00
36816;DHT22;71982;52.294;6.760;2024-03-02T15:01:55;17.20;96.00
36816;DHT22;71982;52.294;6.760;2024-03-02T15:04:22;16.70;96.00
36816;DHT22;71982;52.294;6.760;2024-03-02T15:06:50;16.00;96.50
36816;DHT22;71982;52.294;6.760;2024-03-02T15:09:18;15.50;96.90
36816;DHT22;71982;52.294;6.760;2024-03-02T15:11:45;15.30;97.20
36816;DHT22;71982;52.294;6.760;2024-03-02T15:14:12;15.20;98.10
36816;DHT22;71982;52.294;6.760;2024-03-02T15:16:40;15.00;98.10
36816;DHT22;71982;52.294;6.760;2024-03-02T15:19:07;14.90;97.70
36816;DHT22;71982;52.294;6.760;2024-03-02T15:21:35;14.90;98.00
36816;DHT22;71982;52.294;6.760;2024-03-02T15:24:03;14.90;98.30
36816;DHT22;71982;52.294;6.760;2024-03-02T15:26:30;14.70;98.30
36816;DHT22;71982;52.294;6.760;2024-03-02T15:28:57;14.60;98.00
36816;DHT22;71982;52.294;6.760;2024-03-02T15:31:24;14.60;98.50
36816;DHT22;71982;52.294;6.760;2024-03-02T15:33:52;14.30;98.90
36816;DHT22;71982;52.294;6.760;2024-03-02T15:36:21;14.20;98.70
36816;DHT22;71982;52.294;6.760;2024-03-02T15:38:48;14.10;99.40
36816;DHT22;71982;52.294;6.760;2024-03-02T15:41:16;14.10;99.00
36816;DHT22;71982;52.294;6.760;2024-03-02T15:43:43;14.00;99.30
36816;DHT22;71982;52.294;6.760;2024-03-02T15:46:09;13.80;99.50
36816;DHT22;71982;52.294;6.760;2024-03-02T15:48:36;13.80;99.90